METAR Data
IDs: Format: Raw Decoded Include TAF

Data at: 1318 UTC 26 Feb 2021

LEMI 261300Z 07011KT 030V100 9999 BKN032 15/07 Q1029